sensor_id;sensor_type;location;lat;lon;timestamp;P1;durP1;ratioP1;P2;durP2;ratioP2
50549;SDS011;36505;52.512;13.460;2022-09-13T00:00:59;5.88;;;3.83;;
50549;SDS011;36505;52.512;13.460;2022-09-13T00:03:25;4.18;;;2.75;;
50549;SDS011;36505;52.512;13.460;2022-09-13T00:05:50;5.15;;;3.58;;
50549;SDS011;36505;52.512;13.460;2022-09-13T00:08:16;5.68;;;3.42;;
50549;SDS011;36505;52.512;13.460;2022-09-13T00:10:42;6.05;;;3.53;;
50549;SDS011;36505;52.512;13.460;2022-09-13T00:13:09;7.90;;;3.63;;
50549;SDS011;36505;52.512;13.460;2022-09-13T00:15:46;4.95;;;3.28;;
50549;SDS011;36505;52.512;13.460;2022-09-13T00:18:13;6.22;;;3.05;;
50549;SDS011;36505;52.512;13.460;2022-09-13T00:20:39;4.43;;;3.35;;
50549;SDS011;36505;52.512;13.460;2022-09-13T00:23:05;3.30;;;2.58;;
50549;SDS011;36505;52.512;13.460;2022-09-13T00:25:30;4.03;;;2.95;;
50549;SDS011;36505;52.512;13.460;2022-09-13T00:27:55;4.32;;;2.90;;
50549;SDS011;36505;52.512;13.460;2022-09-13T00:30:21;6.45;;;3.45;;
50549;SDS011;36505;52.512;13.460;2022-09-13T00:32:46;5.30;;;2.90;;
50549;SDS011;36505;52.512;13.460;2022-09-13T00:35:11;3.38;;;2.50;;
50549;SDS011;36505;52.512;13.460;2022-09-13T00:37:37;5.07;;;2.90;;
50549;SDS011;36505;52.512;13.460;2022-09-13T00:40:03;4.05;;;2.80;;
50549;SDS011;36505;52.512;13.460;2022-09-13T00:42:30;3.65;;;2.92;;
50549;SDS011;36505;52.512;13.460;2022-09-13T00:52:38;4.05;;;3.20;;
50549;SDS011;36505;52.512;13.460;2022-09-13T00:55:07;7.68;;;3.28;;
50549;SDS011;36505;52.512;13.460;2022-09-13T00:57:38;4.28;;;2.63;;
50549;SDS011;36505;52.512;13.460;2022-09-13T01:02:40;3.53;;;2.60;;
50549;SDS011;36505;52.512;13.460;2022-09-13T01:05:10;5.43;;;2.65;;
50549;SDS011;36505;52.512;13.460;2022-09-13T01:07:38;4.13;;;2.92;;
50549;SDS011;36505;52.512;13.460;2022-09-13T01:10:04;5.13;;;3.00;;
50549;SDS011;36505;52.512;13.460;2022-09-13T01:12:49;4.88;;;2.90;;
50549;SDS011;36505;52.512;13.460;2022-09-13T01:15:20;4.25;;;2.63;;
50549;SDS011;36505;52.512;13.460;2022-09-13T01:17:46;4.28;;;2.88;;
50549;SDS011;36505;52.512;13.460;2022-09-13T01:20:12;3.53;;;2.75;;
50549;SDS011;36505;52.512;13.460;2022-09-13T01:25:23;5.82;;;2.60;;
50549;SDS011;36505;52.512;13.460;2022-09-13T01:28:36;3.90;;;2.75;;
50549;SDS011;36505;52.512;13.460;2022-09-13T01:45:30;4.17;;;2.80;;
50549;SDS011;36505;52.512;13.460;2022-09-13T01:48:18;3.33;;;2.58;;
50549;SDS011;36505;52.512;13.460;2022-09-13T01:53:54;4.47;;;2.70;;
50549;SDS011;36505;52.512;13.460;2022-09-13T02:01:56;5.57;;;3.13;;
50549;SDS011;36505;52.512;13.460;2022-09-13T02:04:32;4.03;;;3.20;;
50549;SDS011;36505;52.512;13.460;2022-09-13T02:09:40;4.45;;;3.58;;
50549;SDS011;36505;52.512;13.460;2022-09-13T02:12:09;4.63;;;2.83;;
50549;SDS011;36505;52.512;13.460;2022-09-13T02:14:40;4.40;;;3.20;;
50549;SDS011;36505;52.512;13.460;2022-09-13T02:19:46;6.40;;;3.08;;
50549;SDS011;36505;52.512;13.460;2022-09-13T02:22:34;4.18;;;2.72;;
50549;SDS011;36505;52.512;13.460;2022-09-13T02:25:11;3.88;;;2.88;;
50549;SDS011;36505;52.512;13.460;2022-09-13T02:27:40;3.22;;;2.70;;
50549;SDS011;36505;52.512;13.460;2022-09-13T02:30:10;5.63;;;3.03;;
50549;SDS011;36505;52.512;13.460;2022-09-13T02:35:26;6.70;;;3.85;;
50549;SDS011;36505;52.512;13.460;2022-09-13T02:37:59;4.28;;;2.40;;
50549;SDS011;36505;52.512;13.460;2022-09-13T02:40:34;6.97;;;3.08;;
50549;SDS011;36505;52.512;13.460;2022-09-13T02:43:08;3.63;;;2.88;;
50549;SDS011;36505;52.512;13.460;2022-09-13T02:45:40;5.17;;;2.97;;
50549;SDS011;36505;52.512;13.460;2022-09-13T02:48:20;2.92;;;2.42;;
50549;SDS011;36505;52.512;13.460;2022-09-13T02:51:07;6.40;;;3.30;;
50549;SDS011;36505;52.512;13.460;2022-09-13T02:53:42;3.22;;;2.92;;
50549;SDS011;36505;52.512;13.460;2022-09-13T02:59:20;4.18;;;2.88;;
50549;SDS011;36505;52.512;13.460;2022-09-13T03:02:00;4.70;;;2.75;;
50549;SDS011;36505;52.512;13.460;2022-09-13T03:04:29;5.05;;;3.90;;
50549;SDS011;36505;52.512;13.460;2022-09-13T03:06:56;5.60;;;3.17;;
50549;SDS011;36505;52.512;13.460;2022-09-13T03:09:21;3.33;;;2.97;;
50549;SDS011;36505;52.512;13.460;2022-09-13T03:20:10;6.57;;;3.33;;
50549;SDS011;36505;52.512;13.460;2022-09-13T03:28:09;6.90;;;3.13;;
50549;SDS011;36505;52.512;13.460;2022-09-13T03:34:09;6.88;;;3.65;;
50549;SDS011;36505;52.512;13.460;2022-09-13T03:36:54;5.40;;;3.38;;
50549;SDS011;36505;52.512;13.460;2022-09-13T03:39:42;5.60;;;3.40;;
50549;SDS011;36505;52.512;13.460;2022-09-13T03:42:38;5.05;;;3.42;;
50549;SDS011;36505;52.512;13.460;2022-09-13T03:45:26;5.38;;;3.90;;
50549;SDS011;36505;52.512;13.460;2022-09-13T03:47:55;6.25;;;3.20;;
50549;SDS011;36505;52.512;13.460;2022-09-13T03:50:22;5.22;;;3.03;;
50549;SDS011;36505;52.512;13.460;2022-09-13T03:52:50;4.60;;;3.65;;
50549;SDS011;36505;52.512;13.460;2022-09-13T03:55:21;7.50;;;3.65;;
50549;SDS011;36505;52.512;13.460;2022-09-13T03:57:46;5.57;;;3.83;;
50549;SDS011;36505;52.512;13.460;2022-09-13T04:00:12;4.40;;;3.55;;
50549;SDS011;36505;52.512;13.460;2022-09-13T04:02:39;6.95;;;3.78;;
50549;SDS011;36505;52.512;13.460;2022-09-13T04:05:05;5.10;;;3.80;;
50549;SDS011;36505;52.512;13.460;2022-09-13T04:07:31;5.35;;;3.50;;
50549;SDS011;36505;52.512;13.460;2022-09-13T04:09:57;8.30;;;4.15;;
50549;SDS011;36505;52.512;13.460;2022-09-13T04:12:23;6.15;;;3.88;;
50549;SDS011;36505;52.512;13.460;2022-09-13T04:14:48;5.55;;;4.05;;
50549;SDS011;36505;52.512;13.460;2022-09-13T04:17:14;4.50;;;3.75;;
50549;SDS011;36505;52.512;13.460;2022-09-13T04:19:40;5.78;;;3.65;;
50549;SDS011;36505;52.512;13.460;2022-09-13T04:22:05;7.15;;;3.80;;
50549;SDS011;36505;52.512;13.460;2022-09-13T04:24:31;4.57;;;3.72;;
50549;SDS011;36505;52.512;13.460;2022-09-13T04:26:56;7.00;;;3.90;;
50549;SDS011;36505;52.512;13.460;2022-09-13T04:29:23;5.47;;;3.88;;
50549;SDS011;36505;52.512;13.460;2022-09-13T04:31:51;5.35;;;4.00;;
50549;SDS011;36505;52.512;13.460;2022-09-13T04:34:17;6.15;;;3.65;;
50549;SDS011;36505;52.512;13.460;2022-09-13T04:36:43;8.10;;;4.13;;
50549;SDS011;36505;52.512;13.460;2022-09-13T04:39:09;7.68;;;4.20;;
50549;SDS011;36505;52.512;13.460;2022-09-13T04:41:34;6.57;;;3.63;;
50549;SDS011;36505;52.512;13.460;2022-09-13T04:44:00;8.07;;;4.55;;
50549;SDS011;36505;52.512;13.460;2022-09-13T04:46:27;8.10;;;4.68;;
50549;SDS011;36505;52.512;13.460;2022-09-13T04:48:53;9.02;;;4.47;;
50549;SDS011;36505;52.512;13.460;2022-09-13T04:51:19;6.22;;;4.07;;
50549;SDS011;36505;52.512;13.460;2022-09-13T04:53:46;6.20;;;4.22;;
50549;SDS011;36505;52.512;13.460;2022-09-13T04:56:16;9.60;;;4.70;;
50549;SDS011;36505;52.512;13.460;2022-09-13T04:58:43;6.88;;;4.40;;
50549;SDS011;36505;52.512;13.460;2022-09-13T05:01:09;6.78;;;4.43;;
50549;SDS011;36505;52.512;13.460;2022-09-13T05:03:35;9.55;;;4.45;;
50549;SDS011;36505;52.512;13.460;2022-09-13T05:06:02;11.32;;;4.35;;
50549;SDS011;36505;52.512;13.460;2022-09-13T05:08:27;7.25;;;4.45;;
50549;SDS011;36505;52.512;13.460;2022-09-13T05:10:53;7.75;;;4.78;;
50549;SDS011;36505;52.512;13.460;2022-09-13T05:13:18;6.45;;;4.13;;
50549;SDS011;36505;52.512;13.460;2022-09-13T05:15:43;6.90;;;4.70;;
50549;SDS011;36505;52.512;13.460;2022-09-13T05:18:08;8.18;;;4.60;;
50549;SDS011;36505;52.512;13.460;2022-09-13T05:20:34;13.57;;;5.15;;
50549;SDS011;36505;52.512;13.460;2022-09-13T05:22:59;16.30;;;5.13;;
50549;SDS011;36505;52.512;13.460;2022-09-13T05:25:24;7.07;;;4.88;;
50549;SDS011;36505;52.512;13.460;2022-09-13T05:27:50;5.88;;;4.68;;
50549;SDS011;36505;52.512;13.460;2022-09-13T05:30:15;9.65;;;6.35;;
50549;SDS011;36505;52.512;13.460;2022-09-13T05:32:40;8.05;;;4.85;;
50549;SDS011;36505;52.512;13.460;2022-09-13T05:35:06;7.35;;;4.85;;
50549;SDS011;36505;52.512;13.460;2022-09-13T05:37:32;10.40;;;6.85;;
50549;SDS011;36505;52.512;13.460;2022-09-13T05:39:57;7.65;;;4.25;;
50549;SDS011;36505;52.512;13.460;2022-09-13T05:42:23;7.13;;;4.68;;
50549;SDS011;36505;52.512;13.460;2022-09-13T05:44:49;10.50;;;5.43;;
50549;SDS011;36505;52.512;13.460;2022-09-13T05:47:14;12.23;;;5.63;;
50549;SDS011;36505;52.512;13.460;2022-09-13T05:49:41;12.05;;;6.10;;
50549;SDS011;36505;52.512;13.460;2022-09-13T05:52:06;12.25;;;5.13;;
50549;SDS011;36505;52.512;13.460;2022-09-13T05:54:31;13.07;;;6.78;;
50549;SDS011;36505;52.512;13.460;2022-09-13T05:56:58;10.55;;;6.88;;
50549;SDS011;36505;52.512;13.460;2022-09-13T05:59:23;17.27;;;6.55;;
50549;SDS011;36505;52.512;13.460;2022-09-13T06:01:49;8.23;;;5.97;;
50549;SDS011;36505;52.512;13.460;2022-09-13T06:04:14;8.35;;;5.88;;
50549;SDS011;36505;52.512;13.460;2022-09-13T06:06:40;16.38;;;6.30;;
50549;SDS011;36505;52.512;13.460;2022-09-13T06:09:05;8.38;;;5.95;;
50549;SDS011;36505;52.512;13.460;2022-09-13T06:11:32;11.25;;;5.50;;
50549;SDS011;36505;52.512;13.460;2022-09-13T06:13:57;8.57;;;5.55;;
50549;SDS011;36505;52.512;13.460;2022-09-13T06:16:23;14.18;;;5.70;;
50549;SDS011;36505;52.512;13.460;2022-09-13T06:18:48;10.13;;;6.05;;
50549;SDS011;36505;52.512;13.460;2022-09-13T06:21:15;12.93;;;6.07;;
50549;SDS011;36505;52.512;13.460;2022-09-13T06:23:43;7.70;;;5.32;;
50549;SDS011;36505;52.512;13.460;2022-09-13T06:26:10;8.43;;;5.72;;
50549;SDS011;36505;52.512;13.460;2022-09-13T06:28:37;31.38;;;7.13;;
50549;SDS011;36505;52.512;13.460;2022-09-13T06:31:03;9.05;;;6.13;;
50549;SDS011;36505;52.512;13.460;2022-09-13T06:33:37;10.25;;;5.70;;
50549;SDS011;36505;52.512;13.460;2022-09-13T06:36:05;11.13;;;6.65;;
50549;SDS011;36505;52.512;13.460;2022-09-13T06:38:32;11.52;;;6.05;;
50549;SDS011;36505;52.512;13.460;2022-09-13T06:40:58;14.10;;;7.07;;
50549;SDS011;36505;52.512;13.460;2022-09-13T06:43:25;9.85;;;6.22;;
50549;SDS011;36505;52.512;13.460;2022-09-13T06:45:50;8.75;;;6.00;;
50549;SDS011;36505;52.512;13.460;2022-09-13T06:48:16;10.85;;;5.82;;
50549;SDS011;36505;52.512;13.460;2022-09-13T06:50:42;12.32;;;6.95;;
50549;SDS011;36505;52.512;13.460;2022-09-13T06:53:08;10.07;;;6.22;;
50549;SDS011;36505;52.512;13.460;2022-09-13T06:55:34;10.65;;;6.22;;
50549;SDS011;36505;52.512;13.460;2022-09-13T06:57:59;10.05;;;7.40;;
50549;SDS011;36505;52.512;13.460;2022-09-13T07:00:24;12.68;;;6.72;;
50549;SDS011;36505;52.512;13.460;2022-09-13T07:02:50;12.27;;;6.80;;
50549;SDS011;36505;52.512;13.460;2022-09-13T07:05:16;15.15;;;6.90;;
50549;SDS011;36505;52.512;13.460;2022-09-13T07:07:42;9.95;;;6.35;;
50549;SDS011;36505;52.512;13.460;2022-09-13T07:10:08;14.45;;;8.13;;
50549;SDS011;36505;52.512;13.460;2022-09-13T07:12:33;10.25;;;6.88;;
50549;SDS011;36505;52.512;13.460;2022-09-13T07:14:59;13.48;;;7.32;;
50549;SDS011;36505;52.512;13.460;2022-09-13T07:17:25;11.32;;;7.10;;
50549;SDS011;36505;52.512;13.460;2022-09-13T07:19:51;10.95;;;6.68;;
50549;SDS011;36505;52.512;13.460;2022-09-13T07:22:16;17.85;;;10.35;;
50549;SDS011;36505;52.512;13.460;2022-09-13T07:24:42;9.90;;;6.80;;
50549;SDS011;36505;52.512;13.460;2022-09-13T07:27:07;14.95;;;9.20;;
50549;SDS011;36505;52.512;13.460;2022-09-13T07:29:32;10.20;;;6.75;;
50549;SDS011;36505;52.512;13.460;2022-09-13T07:31:58;9.60;;;6.93;;
50549;SDS011;36505;52.512;13.460;2022-09-13T07:34:24;9.75;;;7.55;;
50549;SDS011;36505;52.512;13.460;2022-09-13T07:36:50;14.82;;;7.68;;
50549;SDS011;36505;52.512;13.460;2022-09-13T07:39:16;12.68;;;8.45;;
50549;SDS011;36505;52.512;13.460;2022-09-13T07:41:42;14.13;;;7.72;;
50549;SDS011;36505;52.512;13.460;2022-09-13T07:44:09;15.43;;;8.85;;
50549;SDS011;36505;52.512;13.460;2022-09-13T07:46:35;16.70;;;10.15;;
50549;SDS011;36505;52.512;13.460;2022-09-13T07:49:04;14.50;;;8.68;;
50549;SDS011;36505;52.512;13.460;2022-09-13T07:51:34;12.80;;;8.63;;
50549;SDS011;36505;52.512;13.460;2022-09-13T07:54:01;12.88;;;7.10;;
50549;SDS011;36505;52.512;13.460;2022-09-13T07:56:30;11.77;;;7.25;;
50549;SDS011;36505;52.512;13.460;2022-09-13T07:59:00;14.13;;;9.07;;
50549;SDS011;36505;52.512;13.460;2022-09-13T08:01:28;12.40;;;7.95;;
50549;SDS011;36505;52.512;13.460;2022-09-13T08:04:01;12.60;;;7.78;;
50549;SDS011;36505;52.512;13.460;2022-09-13T08:06:30;11.40;;;6.18;;
50549;SDS011;36505;52.512;13.460;2022-09-13T08:08:57;10.70;;;7.32;;
50549;SDS011;36505;52.512;13.460;2022-09-13T08:11:29;10.48;;;6.95;;
50549;SDS011;36505;52.512;13.460;2022-09-13T08:13:56;10.00;;;7.05;;
50549;SDS011;36505;52.512;13.460;2022-09-13T08:16:22;13.70;;;9.38;;
50549;SDS011;36505;52.512;13.460;2022-09-13T08:18:52;12.98;;;8.25;;
50549;SDS011;36505;52.512;13.460;2022-09-13T08:21:19;10.70;;;7.28;;
50549;SDS011;36505;52.512;13.460;2022-09-13T08:23:45;18.73;;;9.85;;
50549;SDS011;36505;52.512;13.460;2022-09-13T08:26:11;16.27;;;9.07;;
50549;SDS011;36505;52.512;13.460;2022-09-13T08:28:37;10.13;;;7.63;;
50549;SDS011;36505;52.512;13.460;2022-09-13T08:31:14;12.20;;;6.50;;
50549;SDS011;36505;52.512;13.460;2022-09-13T08:33:44;12.15;;;7.05;;
50549;SDS011;36505;52.512;13.460;2022-09-13T08:36:12;10.38;;;6.63;;
50549;SDS011;36505;52.512;13.460;2022-09-13T08:38:38;10.40;;;6.55;;
50549;SDS011;36505;52.512;13.460;2022-09-13T08:49:47;16.23;;;8.18;;
50549;SDS011;36505;52.512;13.460;2022-09-13T08:52:23;10.23;;;7.18;;
50549;SDS011;36505;52.512;13.460;2022-09-13T08:54:54;13.45;;;6.88;;
50549;SDS011;36505;52.512;13.460;2022-09-13T08:57:25;10.57;;;6.43;;
50549;SDS011;36505;52.512;13.460;2022-09-13T09:00:02;14.32;;;6.63;;
50549;SDS011;36505;52.512;13.460;2022-09-13T09:07:58;8.98;;;6.65;;
50549;SDS011;36505;52.512;13.460;2022-09-13T09:10:30;9.13;;;5.57;;
50549;SDS011;36505;52.512;13.460;2022-09-13T09:15:48;9.30;;;6.63;;
50549;SDS011;36505;52.512;13.460;2022-09-13T09:18:22;12.35;;;8.32;;
50549;SDS011;36505;52.512;13.460;2022-09-13T09:20:52;12.23;;;6.17;;
50549;SDS011;36505;52.512;13.460;2022-09-13T09:23:25;12.45;;;6.97;;
50549;SDS011;36505;52.512;13.460;2022-09-13T09:25:56;7.10;;;5.15;;
50549;SDS011;36505;52.512;13.460;2022-09-13T09:29:11;11.82;;;6.13;;
50549;SDS011;36505;52.512;13.460;2022-09-13T09:37:10;10.85;;;6.50;;
50549;SDS011;36505;52.512;13.460;2022-09-13T09:39:41;7.30;;;5.38;;
50549;SDS011;36505;52.512;13.460;2022-09-13T09:42:12;11.02;;;5.80;;
50549;SDS011;36505;52.512;13.460;2022-09-13T09:44:51;8.85;;;6.07;;
50549;SDS011;36505;52.512;13.460;2022-09-13T09:47:23;6.70;;;4.97;;
50549;SDS011;36505;52.512;13.460;2022-09-13T09:52:41;5.45;;;4.45;;
50549;SDS011;36505;52.512;13.460;2022-09-13T09:55:16;7.30;;;4.53;;
50549;SDS011;36505;52.512;13.460;2022-09-13T09:57:54;10.10;;;5.40;;
50549;SDS011;36505;52.512;13.460;2022-09-13T10:00:21;6.03;;;4.43;;
50549;SDS011;36505;52.512;13.460;2022-09-13T10:02:50;6.72;;;5.32;;
50549;SDS011;36505;52.512;13.460;2022-09-13T10:05:18;7.43;;;4.70;;
50549;SDS011;36505;52.512;13.460;2022-09-13T10:07:51;8.23;;;4.70;;
50549;SDS011;36505;52.512;13.460;2022-09-13T10:10:35;7.53;;;5.07;;
50549;SDS011;36505;52.512;13.460;2022-09-13T10:15:28;7.22;;;4.57;;
50549;SDS011;36505;52.512;13.460;2022-09-13T10:18:14;7.35;;;4.47;;
50549;SDS011;36505;52.512;13.460;2022-09-13T10:20:41;8.75;;;5.20;;
50549;SDS011;36505;52.512;13.460;2022-09-13T10:23:23;7.68;;;4.07;;
50549;SDS011;36505;52.512;13.460;2022-09-13T10:28:30;6.18;;;4.25;;
50549;SDS011;36505;52.512;13.460;2022-09-13T10:31:05;6.35;;;4.32;;
50549;SDS011;36505;52.512;13.460;2022-09-13T10:33:38;11.50;;;4.95;;
50549;SDS011;36505;52.512;13.460;2022-09-13T10:36:25;7.68;;;4.85;;
50549;SDS011;36505;52.512;13.460;2022-09-13T10:39:00;8.38;;;4.50;;
50549;SDS011;36505;52.512;13.460;2022-09-13T10:41:30;7.97;;;5.03;;
50549;SDS011;36505;52.512;13.460;2022-09-13T10:43:59;10.80;;;5.43;;
50549;SDS011;36505;52.512;13.460;2022-09-13T10:46:28;8.48;;;4.60;;
50549;SDS011;36505;52.512;13.460;2022-09-13T10:48:56;7.72;;;5.35;;
50549;SDS011;36505;52.512;13.460;2022-09-13T10:53:50;9.15;;;5.82;;
50549;SDS011;36505;52.512;13.460;2022-09-13T10:56:25;9.48;;;5.78;;
50549;SDS011;36505;52.512;13.460;2022-09-13T10:58:52;12.50;;;5.60;;
50549;SDS011;36505;52.512;13.460;2022-09-13T11:02:22;12.15;;;6.75;;
50549;SDS011;36505;52.512;13.460;2022-09-13T11:10:30;14.60;;;7.32;;
50549;SDS011;36505;52.512;13.460;2022-09-13T11:13:20;24.77;;;15.85;;
50549;SDS011;36505;52.512;13.460;2022-09-13T11:26:51;11.48;;;7.63;;
50549;SDS011;36505;52.512;13.460;2022-09-13T11:42:45;10.07;;;6.43;;
50549;SDS011;36505;52.512;13.460;2022-09-13T11:53:15;9.90;;;6.65;;
50549;SDS011;36505;52.512;13.460;2022-09-13T11:55:58;12.50;;;7.38;;
50549;SDS011;36505;52.512;13.460;2022-09-13T11:58:38;11.70;;;7.82;;
50549;SDS011;36505;52.512;13.460;2022-09-13T12:01:12;10.07;;;6.75;;
50549;SDS011;36505;52.512;13.460;2022-09-13T12:06:19;9.50;;;6.13;;
50549;SDS011;36505;52.512;13.460;2022-09-13T12:08:54;10.55;;;6.53;;
50549;SDS011;36505;52.512;13.460;2022-09-13T12:11:24;10.13;;;6.43;;
50549;SDS011;36505;52.512;13.460;2022-09-13T12:13:56;12.85;;;6.63;;
50549;SDS011;36505;52.512;13.460;2022-09-13T12:16:30;13.43;;;6.70;;
50549;SDS011;36505;52.512;13.460;2022-09-13T12:19:01;10.85;;;6.53;;
50549;SDS011;36505;52.512;13.460;2022-09-13T12:21:34;10.30;;;6.78;;
50549;SDS011;36505;52.512;13.460;2022-09-13T12:24:18;13.13;;;6.55;;
50549;SDS011;36505;52.512;13.460;2022-09-13T12:29:35;15.32;;;8.23;;
50549;SDS011;36505;52.512;13.460;2022-09-13T12:32:09;11.40;;;6.85;;
50549;SDS011;36505;52.512;13.460;2022-09-13T12:40:33;10.85;;;6.75;;
50549;SDS011;36505;52.512;13.460;2022-09-13T12:46:08;13.57;;;7.60;;
50549;SDS011;36505;52.512;13.460;2022-09-13T12:49:08;15.05;;;7.60;;
50549;SDS011;36505;52.512;13.460;2022-09-13T12:52:05;12.20;;;7.50;;
50549;SDS011;36505;52.512;13.460;2022-09-13T12:57:48;11.82;;;8.38;;
50549;SDS011;36505;52.512;13.460;2022-09-13T13:00:19;13.40;;;8.35;;
50549;SDS011;36505;52.512;13.460;2022-09-13T13:08:03;13.13;;;7.32;;
50549;SDS011;36505;52.512;13.460;2022-09-13T13:10:35;14.30;;;7.55;;
50549;SDS011;36505;52.512;13.460;2022-09-13T13:13:12;12.27;;;7.07;;
50549;SDS011;36505;52.512;13.460;2022-09-13T13:33:47;11.55;;;7.28;;
50549;SDS011;36505;52.512;13.460;2022-09-13T13:36:25;11.55;;;7.07;;
50549;SDS011;36505;52.512;13.460;2022-09-13T13:38:57;13.50;;;7.85;;
50549;SDS011;36505;52.512;13.460;2022-09-13T13:41:35;13.32;;;7.65;;
50549;SDS011;36505;52.512;13.460;2022-09-13T13:46:54;11.10;;;7.25;;
50549;SDS011;36505;52.512;13.460;2022-09-13T13:49:42;11.68;;;6.60;;
50549;SDS011;36505;52.512;13.460;2022-09-13T13:59:55;9.55;;;6.45;;
50549;SDS011;36505;52.512;13.460;2022-09-13T14:02:34;13.13;;;6.72;;
50549;SDS011;36505;52.512;13.460;2022-09-13T14:10:49;14.85;;;6.50;;
50549;SDS011;36505;52.512;13.460;2022-09-13T14:13:39;10.48;;;5.95;;
50549;SDS011;36505;52.512;13.460;2022-09-13T14:21:24;9.98;;;6.22;;
50549;SDS011;36505;52.512;13.460;2022-09-13T14:24:06;10.45;;;5.75;;
50549;SDS011;36505;52.512;13.460;2022-09-13T14:26:41;7.95;;;4.88;;
50549;SDS011;36505;52.512;13.460;2022-09-13T14:29:07;8.05;;;4.70;;
50549;SDS011;36505;52.512;13.460;2022-09-13T14:31:33;8.43;;;5.40;;
50549;SDS011;36505;52.512;13.460;2022-09-13T14:33:59;7.25;;;4.63;;
50549;SDS011;36505;52.512;13.460;2022-09-13T14:36:25;12.20;;;7.15;;
50549;SDS011;36505;52.512;13.460;2022-09-13T14:39:00;7.45;;;5.20;;
50549;SDS011;36505;52.512;13.460;2022-09-13T14:41:33;8.05;;;4.65;;
50549;SDS011;36505;52.512;13.460;2022-09-13T14:46:45;10.02;;;3.83;;
50549;SDS011;36505;52.512;13.460;2022-09-13T14:49:23;5.78;;;4.22;;
50549;SDS011;36505;52.512;13.460;2022-09-13T14:51:51;6.75;;;3.33;;
50549;SDS011;36505;52.512;13.460;2022-09-13T14:56:55;4.40;;;2.97;;
50549;SDS011;36505;52.512;13.460;2022-09-13T14:59:25;4.82;;;3.33;;
50549;SDS011;36505;52.512;13.460;2022-09-13T15:01:54;5.00;;;3.63;;
50549;SDS011;36505;52.512;13.460;2022-09-13T15:04:21;7.97;;;4.35;;
50549;SDS011;36505;52.512;13.460;2022-09-13T15:06:48;6.93;;;3.90;;
50549;SDS011;36505;52.512;13.460;2022-09-13T15:09:31;6.25;;;3.70;;
50549;SDS011;36505;52.512;13.460;2022-09-13T15:11:58;6.88;;;3.58;;
50549;SDS011;36505;52.512;13.460;2022-09-13T15:14:32;9.57;;;3.42;;
50549;SDS011;36505;52.512;13.460;2022-09-13T15:19:37;6.20;;;3.33;;
50549;SDS011;36505;52.512;13.460;2022-09-13T15:22:21;6.68;;;3.72;;
50549;SDS011;36505;52.512;13.460;2022-09-13T15:24:53;6.75;;;3.83;;
50549;SDS011;36505;52.512;13.460;2022-09-13T15:27:21;27.30;;;5.05;;
50549;SDS011;36505;52.512;13.460;2022-09-13T15:30:38;8.63;;;5.28;;
50549;SDS011;36505;52.512;13.460;2022-09-13T15:32:46;6.00;;;4.75;;
50549;SDS011;36505;52.512;13.460;2022-09-13T15:35:32;12.68;;;5.38;;
50549;SDS011;36505;52.512;13.460;2022-09-13T15:38:01;8.32;;;5.53;;
50549;SDS011;36505;52.512;13.460;2022-09-13T15:40:41;8.82;;;5.43;;
50549;SDS011;36505;52.512;13.460;2022-09-13T15:43:08;6.65;;;4.82;;
50549;SDS011;36505;52.512;13.460;2022-09-13T15:45:33;8.35;;;4.20;;
50549;SDS011;36505;52.512;13.460;2022-09-13T15:47:58;7.65;;;4.88;;
50549;SDS011;36505;52.512;13.460;2022-09-13T15:50:25;7.90;;;4.63;;
50549;SDS011;36505;52.512;13.460;2022-09-13T15:52:54;7.97;;;5.30;;
50549;SDS011;36505;52.512;13.460;2022-09-13T15:55:21;9.45;;;6.18;;
50549;SDS011;36505;52.512;13.460;2022-09-13T15:57:47;11.65;;;5.93;;
50549;SDS011;36505;52.512;13.460;2022-09-13T16:00:30;10.05;;;6.18;;
50549;SDS011;36505;52.512;13.460;2022-09-13T16:02:55;10.90;;;6.03;;
50549;SDS011;36505;52.512;13.460;2022-09-13T16:05:21;9.10;;;5.35;;
50549;SDS011;36505;52.512;13.460;2022-09-13T16:07:46;10.98;;;6.22;;
50549;SDS011;36505;52.512;13.460;2022-09-13T16:10:14;16.33;;;6.00;;
50549;SDS011;36505;52.512;13.460;2022-09-13T16:12:44;7.63;;;5.38;;
50549;SDS011;36505;52.512;13.460;2022-09-13T16:15:10;11.25;;;5.72;;
50549;SDS011;36505;52.512;13.460;2022-09-13T16:17:37;9.93;;;6.57;;
50549;SDS011;36505;52.512;13.460;2022-09-13T16:20:03;8.98;;;5.95;;
50549;SDS011;36505;52.512;13.460;2022-09-13T16:22:30;10.50;;;6.25;;
50549;SDS011;36505;52.512;13.460;2022-09-13T16:24:56;11.35;;;6.85;;
50549;SDS011;36505;52.512;13.460;2022-09-13T16:27:21;8.55;;;5.95;;
50549;SDS011;36505;52.512;13.460;2022-09-13T16:29:50;10.77;;;5.80;;
50549;SDS011;36505;52.512;13.460;2022-09-13T16:32:15;6.97;;;4.65;;
50549;SDS011;36505;52.512;13.460;2022-09-13T16:34:41;8.43;;;6.07;;
50549;SDS011;36505;52.512;13.460;2022-09-13T16:37:06;9.10;;;6.00;;
50549;SDS011;36505;52.512;13.460;2022-09-13T16:39:31;9.25;;;5.10;;
50549;SDS011;36505;52.512;13.460;2022-09-13T16:41:57;8.50;;;5.15;;
50549;SDS011;36505;52.512;13.460;2022-09-13T16:44:22;18.95;;;10.75;;
50549;SDS011;36505;52.512;13.460;2022-09-13T16:46:48;12.80;;;7.57;;
50549;SDS011;36505;52.512;13.460;2022-09-13T16:49:13;10.48;;;5.60;;
50549;SDS011;36505;52.512;13.460;2022-09-13T16:51:38;14.20;;;8.45;;
50549;SDS011;36505;52.512;13.460;2022-09-13T16:54:04;11.30;;;8.68;;
50549;SDS011;36505;52.512;13.460;2022-09-13T16:56:29;13.30;;;9.32;;
50549;SDS011;36505;52.512;13.460;2022-09-13T16:58:55;11.95;;;7.88;;
50549;SDS011;36505;52.512;13.460;2022-09-13T17:01:22;11.35;;;8.00;;
50549;SDS011;36505;52.512;13.460;2022-09-13T17:03:49;9.38;;;6.00;;
50549;SDS011;36505;52.512;13.460;2022-09-13T17:06:16;16.25;;;9.00;;
50549;SDS011;36505;52.512;13.460;2022-09-13T17:08:54;11.82;;;8.15;;
50549;SDS011;36505;52.512;13.460;2022-09-13T17:11:23;14.35;;;8.65;;
50549;SDS011;36505;52.512;13.460;2022-09-13T17:13:50;11.77;;;6.13;;
50549;SDS011;36505;52.512;13.460;2022-09-13T17:16:21;22.52;;;15.00;;
50549;SDS011;36505;52.512;13.460;2022-09-13T17:18:53;21.52;;;14.95;;
50549;SDS011;36505;52.512;13.460;2022-09-13T17:21:21;12.48;;;7.10;;
50549;SDS011;36505;52.512;13.460;2022-09-13T17:23:47;24.75;;;10.63;;
50549;SDS011;36505;52.512;13.460;2022-09-13T17:26:13;27.85;;;15.55;;
50549;SDS011;36505;52.512;13.460;2022-09-13T17:28:38;55.78;;;34.67;;
50549;SDS011;36505;52.512;13.460;2022-09-13T17:31:04;22.25;;;14.43;;
50549;SDS011;36505;52.512;13.460;2022-09-13T17:33:29;20.98;;;13.07;;
50549;SDS011;36505;52.512;13.460;2022-09-13T17:35:59;40.78;;;27.15;;
50549;SDS011;36505;52.512;13.460;2022-09-13T17:38:25;20.33;;;13.75;;
50549;SDS011;36505;52.512;13.460;2022-09-13T17:41:00;63.25;;;40.78;;
50549;SDS011;36505;52.512;13.460;2022-09-13T17:43:34;66.47;;;43.20;;
50549;SDS011;36505;52.512;13.460;2022-09-13T17:46:04;27.92;;;18.33;;
50549;SDS011;36505;52.512;13.460;2022-09-13T17:48:32;15.60;;;9.45;;
50549;SDS011;36505;52.512;13.460;2022-09-13T17:51:04;13.95;;;7.75;;
50549;SDS011;36505;52.512;13.460;2022-09-13T17:53:35;29.90;;;24.00;;
50549;SDS011;36505;52.512;13.460;2022-09-13T17:56:05;17.95;;;13.55;;
50549;SDS011;36505;52.512;13.460;2022-09-13T17:58:31;11.15;;;8.20;;
50549;SDS011;36505;52.512;13.460;2022-09-13T18:01:04;12.25;;;6.55;;
50549;SDS011;36505;52.512;13.460;2022-09-13T18:03:31;8.80;;;5.28;;
50549;SDS011;36505;52.512;13.460;2022-09-13T18:05:58;9.32;;;5.53;;
50549;SDS011;36505;52.512;13.460;2022-09-13T18:08:25;7.90;;;5.30;;
50549;SDS011;36505;52.512;13.460;2022-09-13T18:10:51;11.63;;;5.40;;